ADDS METAR Data INFO
IDs: Format: Raw Decoded Include TAF

Data at: 2318 UTC 15 Jul 2018

KBWP 152250Z AUTO 29009KT 10SM CLR 23/11 A3003 RMK AO1
KBWP 152230Z AUTO 30007KT 10SM CLR 23/11 A3004 RMK AO1
KBWP 152210Z AUTO 29008KT 10SM CLR 23/11 A3005 RMK AO1
KBWP 152150Z AUTO 31011G17KT 10SM CLR 23/11 A3005 RMK AO1
KBWP 152130Z AUTO 32006KT 10SM CLR 23/10 A3006 RMK AO1
KBWP 152110Z AUTO 30010G14KT 10SM CLR 23/11 A3006 RMK AO1
KBWP 152050Z AUTO 29008KT 10SM CLR 23/11 A3006 RMK AO1
KBWP 152030Z AUTO 32009KT 10SM CLR 22/11 A3006 RMK AO1
KBWP 152010Z AUTO 32011KT 10SM CLR 22/10 A3006 RMK AO1
KBWP 151950Z AUTO 33009KT 10SM CLR 22/09 A3006 RMK AO1
KBWP 151930Z AUTO 31011G17KT 10SM CLR 22/11 A3006 RMK AO1
KBWP 151910Z AUTO 32010KT 10SM CLR 22/12 A3005 RMK AO1
KBWP 151850Z AUTO 33012G16KT 10SM CLR 22/11 A3006 RMK AO1
KBWP 151830Z AUTO 33011KT 10SM CLR 22/10 A3005 RMK AO1
KBWP 151810Z AUTO 35011G19KT 10SM CLR 21/10 A3005 RMK AO1
KBWP 151750Z AUTO 34015G19KT 10SM CLR 22/08 A3006 RMK AO1
KBWP 151730Z AUTO 33013G18KT 10SM CLR 22/08 A3006 RMK AO1
KBWP 151710Z AUTO 33013G17KT 10SM CLR 21/10 A3006 RMK AO1
KBWP 151650Z AUTO 34012G15KT 10SM CLR 20/11 A3007 RMK AO1
KBWP 151630Z AUTO 34010KT 10SM CLR 20/12 A3008 RMK AO1
KBWP 151610Z AUTO 33006KT 10SM CLR 18/12 A3008 RMK AO1
KBWP 151550Z AUTO 33008KT 10SM SCT055 18/11 A3009 RMK AO1
KBWP 151530Z AUTO 33009KT 10SM SCT055 18/12 A3009 RMK AO1
KBWP 151510Z AUTO 32008KT 10SM SCT034 SCT060 18/12 A3008 RMK AO1
KBWP 151450Z AUTO 33009G14KT 10SM OVC032 18/12 A3007 RMK AO1
KBWP 151430Z AUTO 31009KT 10SM OVC034 18/13 A3008 RMK AO1
KBWP 151410Z AUTO 33011G15KT 7SM SCT034 SCT100 BKN120 18/12 A3005 RMK AO1
KBWP 151350Z AUTO 35013G19KT 10SM SCT030 BKN090 BKN110 18/11 A3003 RMK AO1
KBWP 151330Z AUTO 35014G19KT 10SM OVC030 18/12 A3003 RMK AO1
KBWP 151310Z AUTO 36010KT 10SM OVC030 17/13 A3002 RMK AO1
KBWP 151250Z AUTO 33009G14KT 10SM BKN030 BKN046 BKN060 18/13 A3003 RMK AO1
KBWP 151230Z AUTO 34011G16KT 10SM SCT025 BKN032 BKN044 19/13 A3001 RMK AO1
KBWP 151210Z AUTO 32013G18KT 10SM BKN023 BKN044 20/14 A3002 RMK AO1
KBWP 151150Z AUTO 36012G16KT 10SM SCT019 20/15 A2998 RMK AO1
KBWP 151130Z AUTO 35012G19KT 10SM BKN017 20/16 A2997 RMK AO1
KBWP 151110Z AUTO 34011KT 10SM SCT017 20/17 A2997 RMK AO1
KBWP 151050Z AUTO 32009G15KT 10SM CLR 20/17 A2997 RMK AO1
KBWP 151030Z AUTO 26008KT 10SM CLR 20/17 A2997 RMK AO1
KBWP 151010Z AUTO 23005KT 10SM SCT100 19/17 A2997 RMK AO1
KBWP 150950Z AUTO 19004KT 10SM CLR 19/17 A2996 RMK AO1
KBWP 150930Z AUTO 22003KT 10SM CLR 18/17 A2997 RMK AO1
KBWP 150910Z AUTO 21003KT 10SM SCT090 20/17 A2997 RMK AO1
KBWP 150850Z AUTO 00000KT 10SM SCT090 20/17 A2996 RMK AO1
KBWP 150830Z AUTO 19004KT 10SM SCT100 20/17 A2996 RMK AO1
KBWP 150810Z AUTO 20005KT 10SM BKN100 20/17 A2996 RMK AO1
KBWP 150750Z AUTO 19006KT 10SM SCT100 20/17 A2996 RMK AO1
KBWP 150730Z AUTO 18005KT 10SM SCT100 21/17 A2997 RMK AO1
KBWP 150710Z AUTO 17006KT 10SM BKN100 21/18 A2996 RMK AO1
KBWP 150650Z AUTO 18006KT 10SM SCT100 20/17 A2997 RMK AO1
KBWP 150630Z AUTO 18004KT 10SM CLR 20/17 A2998 RMK AO1
KBWP 150610Z AUTO 21004KT 10SM CLR 21/17 A2998 RMK AO1
KBWP 150550Z AUTO 18008KT 10SM CLR 22/17 A2996 RMK AO1
KBWP 150530Z AUTO 17008KT 10SM CLR 22/17 A2995 RMK AO1
KBWP 150510Z AUTO 16009KT 10SM CLR 22/17 A2996 RMK AO1
KBWP 150450Z AUTO 17009KT 10SM CLR 22/17 A2997 RMK AO1
KBWP 150430Z AUTO 17008KT 10SM CLR 22/17 A2997 RMK AO1
KBWP 150410Z AUTO 17007KT 10SM CLR 22/17 A2997 RMK AO1
KBWP 150350Z AUTO 18007KT 10SM CLR 22/17 A2997 RMK AO1
KBWP 150330Z AUTO 17008KT 10SM CLR 22/17 A2996 RMK AO1
KBWP 150310Z AUTO 18006KT 10SM CLR 22/17 A2996 RMK AO1
KBWP 150250Z AUTO 17007KT 10SM CLR 23/17 A2995 RMK AO1
KBWP 150230Z AUTO 17005KT 10SM CLR 24/17 A2994 RMK AO1
KBWP 150210Z AUTO 16007KT 10SM CLR 24/17 A2994 RMK AO1
KBWP 150150Z AUTO 15006KT 10SM CLR 25/17 A2994 RMK AO1
KBWP 150130Z AUTO 16006KT 10SM CLR 25/17 A2994 RMK AO1
KBWP 150110Z AUTO 16007KT 10SM CLR 26/16 A2994 RMK AO1
KBWP 150050Z AUTO 16008KT 10SM CLR 27/16 A2994 RMK AO1
KBWP 150030Z AUTO 17008KT 10SM CLR 28/16 A2995 RMK AO1
KBWP 150010Z AUTO 18008KT 10SM CLR 28/16 A2996 RMK AO1
KBWP 142350Z AUTO 18009KT 10SM CLR 28/16 A2996 RMK AO1
KBWP 142330Z AUTO 18010KT 10SM CLR 28/16 A2996 RMK AO1
KBWP 142310Z AUTO 17008KT 10SM CLR 29/16 A2996 RMK AO1
KBWP 142250Z AUTO 18013KT 10SM CLR 29/15 A2996 RMK AO1
KBWP 142230Z AUTO 16012G18KT 10SM CLR 30/15 A2997 RMK AO1
KBWP 142210Z AUTO 18012KT 10SM CLR 30/15 A2997 RMK AO1
KBWP 142150Z AUTO 19011KT 10SM CLR 30/15 A2998 RMK AO1
KBWP 142130Z AUTO 17011KT 10SM CLR 30/15 A2999 RMK AO1
KBWP 142110Z AUTO 17013KT 10SM CLR 30/14 A2999 RMK AO1
KBWP 142050Z AUTO 18012G16KT 10SM CLR 30/14 A2999 RMK AO1
KBWP 142030Z AUTO 18013KT 10SM CLR 30/13 A2999 RMK AO1
KBWP 142010Z AUTO 17011G16KT 10SM CLR 30/15 A2999 RMK AO1
KBWP 141950Z AUTO 16009KT 10SM CLR 30/15 A3000 RMK AO1
KBWP 141930Z AUTO 16011KT 10SM CLR 30/14 A3001 RMK AO1
KBWP 141910Z AUTO 15011KT 10SM CLR 30/13 A3001 RMK AO1
KBWP 141850Z AUTO 18010G14KT 10SM CLR 30/15 A3001 RMK AO1
KBWP 141830Z AUTO 19012KT 10SM CLR 30/15 A3001 RMK AO1
KBWP 141810Z AUTO 18010KT 10SM CLR 29/14 A3002 RMK AO1
KBWP 141750Z AUTO 20009KT 10SM CLR 29/15 A3003 RMK AO1
KBWP 141730Z AUTO 17010KT 10SM CLR 29/15 A3003 RMK AO1
KBWP 141710Z AUTO 19010KT 10SM CLR 28/15 A3003 RMK AO1
KBWP 141650Z AUTO 18010KT 10SM CLR 28/17 A3003 RMK AO1
KBWP 141630Z AUTO 20007KT 10SM CLR 28/17 A3003 RMK AO1
KBWP 141610Z AUTO 20005KT 10SM CLR 28/18 A3004 RMK AO1
KBWP 141550Z AUTO 22004KT 10SM CLR 27/17 A3004 RMK AO1
KBWP 141530Z AUTO 22006KT 10SM CLR 27/18 A3004 RMK AO1
KBWP 141510Z AUTO 23005KT 10SM CLR 26/18 A3005 RMK AO1
KBWP 141450Z AUTO 20004KT 10SM CLR 26/18 A3004 RMK AO1
KBWP 141430Z AUTO 21004KT 10SM CLR 25/18 A3005 RMK AO1
KBWP 141410Z AUTO 20005KT 10SM CLR 25/18 A3005 RMK AO1
KBWP 141350Z AUTO 21005KT 10SM CLR 23/18 A3005 RMK AO1
KBWP 141330Z AUTO 22005KT 10SM CLR 23/17 A3006 RMK AO1
KBWP 141310Z AUTO 18004KT 10SM CLR 22/17 A3006 RMK AO1
KBWP 141250Z AUTO 00000KT 10SM CLR 20/17 A3006 RMK AO1
KBWP 141230Z AUTO 00000KT 10SM CLR 19/16 A3006 RMK AO1
KBWP 141210Z AUTO 00000KT 10SM CLR 18/16 A3006 RMK AO1
KBWP 141150Z AUTO 13003KT 10SM CLR 17/15 A3005 RMK AO1
KBWP 141130Z AUTO 00000KT 10SM CLR 17/15 A3005 RMK AO1